Flugplatz Borkenberge

Für EDLB sind keine METAR/TAF Berichte vorhanden.
Es werden die Flugwettermeldungen vom Flugplatz Dortmund in 36 km Entfernung angezeigt.

Bericht für EDLW

vom 15.07. um 16:50 UTC

Wind 5 kt aus 270°

Sichtweite 10 km oder mehr

gute Sicht, keine Wolken < 5000 ft, keine CB, keine Wettererscheinungen (CAVOK)

Temperatur 20.0°C

Taupunkt 8.0°C

Luftfeuchtigkeit 46%

Luftdruck 1014 hPa

EDLW 151650Z 27005KT 200V330 CAVOK 20/08 Q1014

Prognose für EDLW

vom 15.07. um 11:00 UTC

Zwischen 12:00 UTC und 19:00 UTC

Wind 5 kt aus 300°

Sichtweite 10 km oder mehr

aufgebrochene Bewölkung in 3000 ft


Zwischen 19:00 und 22:00 UTC übergehend zu

variable Windrichtung mit 3 kt

Sichtweite 10 km oder mehr

aufgebrochene Bewölkung in 3000 ft


Am 16.07. zwischen 03:00 UTC und 12:00 UTC zeitweise

Sichtweite 3000 m

schwacher Regen

schwacher Sprühregen

feuchter Dunst

aufgebrochene Bewölkung in 1200 ft


Am 16.07. zwischen 06:00 und 09:00 UTC übergehend zu

Wind 5 kt aus 260°

Sichtweite 10 km oder mehr

aufgebrochene Bewölkung in 3000 ft

TAF EDLW 151100Z 1512/1612 30005KT 9999 BKN030 BECMG 1519/1522 VRB03KT TEMPO 1603/1612 3000 -RADZ BR BKN012 BECMG 1606/1609 26005KT
Impressum